sensor_id;sensor_type;location;lat;lon;timestamp;pressure;altitude;pressure_sealevel;temperature;humidity
77603;BME280;66771;52.434;17.056;2023-02-20T00:00:19;101055.83;;;-0.43;72.70
77603;BME280;66771;52.434;17.056;2023-02-20T00:03:07;101057.53;;;-0.41;72.64
77603;BME280;66771;52.434;17.056;2023-02-20T00:05:34;101064.55;;;-0.39;72.73
77603;BME280;66771;52.434;17.056;2023-02-20T00:08:01;101066.33;;;-0.40;72.65
77603;BME280;66771;52.434;17.056;2023-02-20T00:10:28;101063.40;;;-0.42;72.90
77603;BME280;66771;52.434;17.056;2023-02-20T00:12:54;101061.73;;;-0.47;72.86
77603;BME280;66771;52.434;17.056;2023-02-20T00:15:22;101065.08;;;-0.46;72.92
77603;BME280;66771;52.434;17.056;2023-02-20T00:17:49;101070.51;;;-0.43;72.93
77603;BME280;66771;52.434;17.056;2023-02-20T00:20:21;101073.94;;;-0.40;73.13
77603;BME280;66771;52.434;17.056;2023-02-20T00:22:48;101073.94;;;-0.33;73.08
77603;BME280;66771;52.434;17.056;2023-02-20T00:25:17;101074.39;;;-0.30;73.15
77603;BME280;66771;52.434;17.056;2023-02-20T00:27:44;101071.67;;;-0.28;73.14
77603;BME280;66771;52.434;17.056;2023-02-20T00:30:15;101066.49;;;-0.25;73.22
77603;BME280;66771;52.434;17.056;2023-02-20T00:32:42;101062.04;;;-0.24;73.25
77603;BME280;66771;52.434;17.056;2023-02-20T00:35:12;101057.37;;;-0.21;73.36
77603;BME280;66771;52.434;17.056;2023-02-20T00:37:39;101060.17;;;-0.14;73.38
77603;BME280;66771;52.434;17.056;2023-02-20T00:40:07;101060.27;;;-0.04;73.36
77603;BME280;66771;52.434;17.056;2023-02-20T00:42:34;101058.44;;;0.05;73.31
77603;BME280;66771;52.434;17.056;2023-02-20T00:45:03;101050.31;;;0.11;73.35
77603;BME280;66771;52.434;17.056;2023-02-20T00:47:30;101051.14;;;0.19;73.25
77603;BME280;66771;52.434;17.056;2023-02-20T00:49:57;101047.48;;;0.24;73.21
77603;BME280;66771;52.434;17.056;2023-02-20T00:52:24;101037.66;;;0.27;73.40
77603;BME280;66771;52.434;17.056;2023-02-20T00:54:51;101034.25;;;0.28;73.08
77603;BME280;66771;52.434;17.056;2023-02-20T00:57:18;101028.84;;;0.32;73.25
77603;BME280;66771;52.434;17.056;2023-02-20T00:59:45;101017.01;;;0.37;73.18
77603;BME280;66771;52.434;17.056;2023-02-20T01:02:12;101010.54;;;0.40;73.04
77603;BME280;66771;52.434;17.056;2023-02-20T01:04:39;101005.20;;;0.42;73.16
77603;BME280;66771;52.434;17.056;2023-02-20T01:07:05;101009.45;;;0.40;73.16
77603;BME280;66771;52.434;17.056;2023-02-20T01:09:32;101004.89;;;0.40;73.15
77603;BME280;66771;52.434;17.056;2023-02-20T01:11:59;101008.30;;;0.38;73.18
77603;BME280;66771;52.434;17.056;2023-02-20T01:14:26;101009.68;;;0.33;73.20
77603;BME280;66771;52.434;17.056;2023-02-20T01:16:53;101020.66;;;0.27;73.33
77603;BME280;66771;52.434;17.056;2023-02-20T01:19:21;101020.01;;;0.25;73.58
77603;BME280;66771;52.434;17.056;2023-02-20T01:21:49;101018.89;;;0.27;73.54
77603;BME280;66771;52.434;17.056;2023-02-20T01:24:17;101014.63;;;0.28;73.55
77603;BME280;66771;52.434;17.056;2023-02-20T01:26:48;101009.52;;;0.27;73.62
77603;BME280;66771;52.434;17.056;2023-02-20T01:29:15;101001.96;;;0.25;73.67
77603;BME280;66771;52.434;17.056;2023-02-20T01:31:47;100985.57;;;0.22;73.85
77603;BME280;66771;52.434;17.056;2023-02-20T01:34:16;100979.67;;;0.19;73.86
77603;BME280;66771;52.434;17.056;2023-02-20T01:36:49;100984.27;;;0.12;73.76
77603;BME280;66771;52.434;17.056;2023-02-20T01:39:22;100987.03;;;0.09;73.96
77603;BME280;66771;52.434;17.056;2023-02-20T01:41:52;100993.06;;;0.08;74.15
77603;BME280;66771;52.434;17.056;2023-02-20T01:44:28;100986.21;;;0.07;74.39
77603;BME280;66771;52.434;17.056;2023-02-20T01:46:57;100986.03;;;0.07;74.46
77603;BME280;66771;52.434;17.056;2023-02-20T01:52:10;100977.02;;;0.00;74.98
77603;BME280;66771;52.434;17.056;2023-02-20T01:54:40;100971.08;;;-0.03;75.06
77603;BME280;66771;52.434;17.056;2023-02-20T01:57:13;100977.48;;;-0.04;75.12
77603;BME280;66771;52.434;17.056;2023-02-20T01:59:43;100982.07;;;-0.04;75.06
77603;BME280;66771;52.434;17.056;2023-02-20T03:29:47;100858.69;;;0.93;76.02
77603;BME280;66771;52.434;17.056;2023-02-20T03:33:24;100857.50;;;0.97;75.88
77603;BME280;66771;52.434;17.056;2023-02-20T03:37:11;100861.23;;;1.02;75.97
77603;BME280;66771;52.434;17.056;2023-02-20T03:51:51;100859.66;;;1.01;76.44
77603;BME280;66771;52.434;17.056;2023-02-20T03:55:33;100858.05;;;1.06;76.20
77603;BME280;66771;52.434;17.056;2023-02-20T03:59:07;100851.55;;;1.05;76.35
77603;BME280;66771;52.434;17.056;2023-02-20T04:05:53;100841.98;;;1.00;76.84
77603;BME280;66771;52.434;17.056;2023-02-20T04:34:18;100832.43;;;1.20;77.00
77603;BME280;66771;52.434;17.056;2023-02-20T04:38:00;100827.04;;;1.22;77.05
77603;BME280;66771;52.434;17.056;2023-02-20T04:41:30;100824.34;;;1.23;77.04
77603;BME280;66771;52.434;17.056;2023-02-20T04:44:52;100823.88;;;1.26;77.11
77603;BME280;66771;52.434;17.056;2023-02-20T04:48:22;100814.06;;;1.27;76.91
77603;BME280;66771;52.434;17.056;2023-02-20T04:55:02;100805.09;;;1.26;77.16
77603;BME280;66771;52.434;17.056;2023-02-20T05:01:32;100784.11;;;1.27;77.31
77603;BME280;66771;52.434;17.056;2023-02-20T05:11:06;100763.98;;;1.30;77.34
77603;BME280;66771;52.434;17.056;2023-02-20T05:14:46;100761.09;;;1.31;77.46
77603;BME280;66771;52.434;17.056;2023-02-20T05:18:02;100757.10;;;1.29;77.74
77603;BME280;66771;52.434;17.056;2023-02-20T05:24:49;100748.04;;;1.20;78.95
77603;BME280;66771;52.434;17.056;2023-02-20T05:28:29;100738.83;;;1.15;79.47
77603;BME280;66771;52.434;17.056;2023-02-20T05:56:12;100688.70;;;1.29;79.19
77603;BME280;66771;52.434;17.056;2023-02-20T06:09:49;100677.73;;;1.42;79.52
77603;BME280;66771;52.434;17.056;2023-02-20T06:28:05;100667.89;;;1.53;80.25
77603;BME280;66771;52.434;17.056;2023-02-20T06:41:38;100624.83;;;1.70;80.06
77603;BME280;66771;52.434;17.056;2023-02-20T06:44:44;100618.86;;;1.72;79.85
77603;BME280;66771;52.434;17.056;2023-02-20T06:48:10;100620.16;;;1.76;80.01
77603;BME280;66771;52.434;17.056;2023-02-20T06:51:07;100614.37;;;1.78;80.25
77603;BME280;66771;52.434;17.056;2023-02-20T06:54:24;100609.67;;;1.85;79.81
77603;BME280;66771;52.434;17.056;2023-02-20T06:57:45;100605.03;;;1.90;80.01
77603;BME280;66771;52.434;17.056;2023-02-20T07:08:58;100595.89;;;2.00;80.82
77603;BME280;66771;52.434;17.056;2023-02-20T07:12:23;100583.41;;;2.05;80.95
77603;BME280;66771;52.434;17.056;2023-02-20T07:19:58;100553.84;;;2.20;81.06
77603;BME280;66771;52.434;17.056;2023-02-20T07:23:34;100544.55;;;2.26;81.21
77603;BME280;66771;52.434;17.056;2023-02-20T07:27:03;100525.61;;;2.32;81.12
77603;BME280;66771;52.434;17.056;2023-02-20T07:40:26;100507.73;;;2.66;80.07
77603;BME280;66771;52.434;17.056;2023-02-20T07:43:55;100498.46;;;2.70;80.01
77603;BME280;66771;52.434;17.056;2023-02-20T07:47:33;100482.99;;;2.74;80.03
77603;BME280;66771;52.434;17.056;2023-02-20T07:50:41;100476.34;;;2.83;79.76
77603;BME280;66771;52.434;17.056;2023-02-20T07:53:48;100477.42;;;2.87;79.75
77603;BME280;66771;52.434;17.056;2023-02-20T07:57:38;100473.26;;;2.88;79.84
77603;BME280;66771;52.434;17.056;2023-02-20T08:15:29;100443.73;;;2.89;82.29
77603;BME280;66771;52.434;17.056;2023-02-20T08:29:48;100442.39;;;2.91;83.56
77603;BME280;66771;52.434;17.056;2023-02-20T08:33:08;100435.48;;;2.90;83.77
77603;BME280;66771;52.434;17.056;2023-02-20T08:36:10;100436.90;;;2.91;84.44
77603;BME280;66771;52.434;17.056;2023-02-20T08:39:12;100415.41;;;2.94;84.31
77603;BME280;66771;52.434;17.056;2023-02-20T08:42:01;100411.88;;;2.97;84.97
77603;BME280;66771;52.434;17.056;2023-02-20T08:44:55;100398.58;;;3.00;85.07
77603;BME280;66771;52.434;17.056;2023-02-20T08:51:00;100381.73;;;3.16;84.77
77603;BME280;66771;52.434;17.056;2023-02-20T08:57:07;100364.84;;;3.28;85.49
77603;BME280;66771;52.434;17.056;2023-02-20T09:03:29;100351.16;;;3.27;85.93
77603;BME280;66771;52.434;17.056;2023-02-20T09:06:35;100353.27;;;3.28;86.33
77603;BME280;66771;52.434;17.056;2023-02-20T09:09:18;100353.00;;;3.33;85.87
77603;BME280;66771;52.434;17.056;2023-02-20T09:12:11;100357.04;;;3.37;85.63
77603;BME280;66771;52.434;17.056;2023-02-20T09:15:08;100324.89;;;3.43;86.40
77603;BME280;66771;52.434;17.056;2023-02-20T09:17:56;100328.02;;;3.48;86.15
77603;BME280;66771;52.434;17.056;2023-02-20T09:21:16;100325.61;;;3.53;86.19
77603;BME280;66771;52.434;17.056;2023-02-20T09:27:04;100296.33;;;3.75;85.95
77603;BME280;66771;52.434;17.056;2023-02-20T09:33:36;100284.02;;;3.85;86.13
77603;BME280;66771;52.434;17.056;2023-02-20T09:36:20;100255.98;;;3.90;86.54
77603;BME280;66771;52.434;17.056;2023-02-20T09:39:03;100216.77;;;3.94;86.42
77603;BME280;66771;52.434;17.056;2023-02-20T09:42:27;100221.40;;;4.06;86.24
77603;BME280;66771;52.434;17.056;2023-02-20T09:45:51;100219.71;;;4.14;85.96
77603;BME280;66771;52.434;17.056;2023-02-20T09:52:09;100188.53;;;4.27;86.27
77603;BME280;66771;52.434;17.056;2023-02-20T09:55:33;100187.24;;;4.36;85.95
77603;BME280;66771;52.434;17.056;2023-02-20T09:59:08;100194.58;;;4.45;85.99
77603;BME280;66771;52.434;17.056;2023-02-20T10:02:39;100199.37;;;4.57;85.88
77603;BME280;66771;52.434;17.056;2023-02-20T10:12:26;100158.27;;;4.91;84.92
77603;BME280;66771;52.434;17.056;2023-02-20T10:15:47;100147.30;;;5.05;84.70
77603;BME280;66771;52.434;17.056;2023-02-20T10:19:41;100134.94;;;5.11;83.88
77603;BME280;66771;52.434;17.056;2023-02-20T10:25:49;100109.38;;;5.37;82.87
77603;BME280;66771;52.434;17.056;2023-02-20T10:28:38;100101.28;;;5.52;82.91
77603;BME280;66771;52.434;17.056;2023-02-20T10:35:19;100078.58;;;5.77;81.06
77603;BME280;66771;52.434;17.056;2023-02-20T10:38:02;100058.80;;;5.87;80.37
77603;BME280;66771;52.434;17.056;2023-02-20T10:41:02;100064.55;;;5.98;79.61
77603;BME280;66771;52.434;17.056;2023-02-20T10:44:40;100070.05;;;6.14;79.66
77603;BME280;66771;52.434;17.056;2023-02-20T11:07:06;99999.66;;;6.90;75.83
77603;BME280;66771;52.434;17.056;2023-02-20T11:10:12;99991.09;;;6.99;75.66
77603;BME280;66771;52.434;17.056;2023-02-20T11:13:29;99976.64;;;7.06;74.99
77603;BME280;66771;52.434;17.056;2023-02-20T11:16:28;99975.92;;;7.16;75.52
77603;BME280;66771;52.434;17.056;2023-02-20T11:22:49;99971.21;;;7.48;75.02
77603;BME280;66771;52.434;17.056;2023-02-20T11:29:12;99953.73;;;7.78;72.41
77603;BME280;66771;52.434;17.056;2023-02-20T11:35:21;99937.95;;;7.95;71.66
77603;BME280;66771;52.434;17.056;2023-02-20T11:38:16;99933.79;;;8.06;70.80
77603;BME280;66771;52.434;17.056;2023-02-20T11:44:25;99909.23;;;8.20;68.93
77603;BME280;66771;52.434;17.056;2023-02-20T11:47:27;99905.73;;;8.26;68.84
77603;BME280;66771;52.434;17.056;2023-02-20T11:50:22;99901.67;;;8.28;68.21
77603;BME280;66771;52.434;17.056;2023-02-20T11:53:29;99897.19;;;8.32;69.04
77603;BME280;66771;52.434;17.056;2023-02-20T11:56:27;99897.66;;;8.33;68.49
77603;BME280;66771;52.434;17.056;2023-02-20T12:00:26;99881.06;;;8.34;68.20
77603;BME280;66771;52.434;17.056;2023-02-20T12:06:42;99872.43;;;8.34;67.22
77603;BME280;66771;52.434;17.056;2023-02-20T12:12:32;99874.07;;;8.43;67.15
77603;BME280;66771;52.434;17.056;2023-02-20T12:14:59;99858.20;;;8.49;67.90
77603;BME280;66771;52.434;17.056;2023-02-20T12:29:35;99868.50;;;8.39;66.00
77603;BME280;66771;52.434;17.056;2023-02-20T12:40:55;99852.81;;;8.29;66.32
77603;BME280;66771;52.434;17.056;2023-02-20T13:00:37;99841.08;;;8.10;66.31
77603;BME280;66771;52.434;17.056;2023-02-20T13:11:35;99805.80;;;8.16;67.06
77603;BME280;66771;52.434;17.056;2023-02-20T13:22:17;99802.08;;;8.22;67.12
77603;BME280;66771;52.434;17.056;2023-02-20T13:25:55;99795.67;;;8.21;67.53
77603;BME280;66771;52.434;17.056;2023-02-20T13:36:07;99777.82;;;8.23;67.65
77603;BME280;66771;52.434;17.056;2023-02-20T13:39:24;99780.91;;;8.25;67.63
77603;BME280;66771;52.434;17.056;2023-02-20T13:53:24;99773.13;;;8.32;68.16
77603;BME280;66771;52.434;17.056;2023-02-20T13:55:55;99777.11;;;8.34;68.78
77603;BME280;66771;52.434;17.056;2023-02-20T13:58:36;99776.20;;;8.34;68.32
77603;BME280;66771;52.434;17.056;2023-02-20T14:01:20;99771.25;;;8.33;68.29
77603;BME280;66771;52.434;17.056;2023-02-20T14:07:16;99763.94;;;8.35;68.72
77603;BME280;66771;52.434;17.056;2023-02-20T14:10:03;99759.46;;;8.35;68.64
77603;BME280;66771;52.434;17.056;2023-02-20T14:26:57;99760.95;;;8.43;69.05
77603;BME280;66771;52.434;17.056;2023-02-20T14:29:48;99763.06;;;8.46;69.30
77603;BME280;66771;52.434;17.056;2023-02-20T14:32:52;99760.79;;;8.48;69.36
77603;BME280;66771;52.434;17.056;2023-02-20T14:35:54;99756.33;;;8.50;69.34
77603;BME280;66771;52.434;17.056;2023-02-20T14:43:00;99741.23;;;8.54;69.58
77603;BME280;66771;52.434;17.056;2023-02-20T14:45:39;99740.73;;;8.56;69.66
77603;BME280;66771;52.434;17.056;2023-02-20T14:53:05;99739.10;;;8.62;69.81
77603;BME280;66771;52.434;17.056;2023-02-20T15:03:26;99733.52;;;8.59;70.22
77603;BME280;66771;52.434;17.056;2023-02-20T15:06:33;99731.98;;;8.62;70.24
77603;BME280;66771;52.434;17.056;2023-02-20T15:13:20;99738.83;;;8.61;70.63
77603;BME280;66771;52.434;17.056;2023-02-20T15:17:04;99736.00;;;8.59;70.80
77603;BME280;66771;52.434;17.056;2023-02-20T15:20:46;99735.52;;;8.58;70.83
77603;BME280;66771;52.434;17.056;2023-02-20T15:38:06;99714.90;;;8.52;71.46
77603;BME280;66771;52.434;17.056;2023-02-20T15:41:11;99710.62;;;8.54;71.40
77603;BME280;66771;52.434;17.056;2023-02-20T15:43:54;99709.59;;;8.51;71.39
77603;BME280;66771;52.434;17.056;2023-02-20T15:46:53;99711.77;;;8.53;71.17
77603;BME280;66771;52.434;17.056;2023-02-20T15:50:04;99716.07;;;8.55;71.34
77603;BME280;66771;52.434;17.056;2023-02-20T15:52:44;99727.23;;;8.54;71.06
77603;BME280;66771;52.434;17.056;2023-02-20T15:55:33;99729.86;;;8.55;71.10
77603;BME280;66771;52.434;17.056;2023-02-20T15:58:22;99730.90;;;8.55;70.79
77603;BME280;66771;52.434;17.056;2023-02-20T16:01:28;99735.70;;;8.60;70.76
77603;BME280;66771;52.434;17.056;2023-02-20T16:04:16;99733.64;;;8.61;70.76
77603;BME280;66771;52.434;17.056;2023-02-20T16:07:06;99734.98;;;8.62;70.50
77603;BME280;66771;52.434;17.056;2023-02-20T16:09:57;99745.35;;;8.63;70.51
77603;BME280;66771;52.434;17.056;2023-02-20T16:12:31;99741.27;;;8.64;70.58
77603;BME280;66771;52.434;17.056;2023-02-20T16:18:45;99748.33;;;8.66;70.46
77603;BME280;66771;52.434;17.056;2023-02-20T16:21:26;99747.30;;;8.65;70.45
77603;BME280;66771;52.434;17.056;2023-02-20T16:24:28;99745.93;;;8.64;70.67
77603;BME280;66771;52.434;17.056;2023-02-20T16:26:59;99744.68;;;8.64;70.59
77603;BME280;66771;52.434;17.056;2023-02-20T16:30:49;99742.92;;;8.66;70.89
77603;BME280;66771;52.434;17.056;2023-02-20T16:33:21;99746.91;;;8.63;70.90
77603;BME280;66771;52.434;17.056;2023-02-20T16:36:35;99739.80;;;8.63;70.79
77603;BME280;66771;52.434;17.056;2023-02-20T16:42:50;99744.98;;;8.65;70.67
77603;BME280;66771;52.434;17.056;2023-02-20T16:52:52;99749.58;;;8.66;70.96
77603;BME280;66771;52.434;17.056;2023-02-20T16:55:33;99755.16;;;8.70;70.87
77603;BME280;66771;52.434;17.056;2023-02-20T16:58:27;99757.02;;;8.69;70.91
77603;BME280;66771;52.434;17.056;2023-02-20T17:01:15;99760.23;;;8.67;70.98
77603;BME280;66771;52.434;17.056;2023-02-20T17:06:32;99760.63;;;8.71;70.97
77603;BME280;66771;52.434;17.056;2023-02-20T17:09:25;99762.19;;;8.70;70.79
77603;BME280;66771;52.434;17.056;2023-02-20T17:12:37;99765.83;;;8.69;71.03
77603;BME280;66771;52.434;17.056;2023-02-20T17:15:10;99764.54;;;8.67;71.05
77603;BME280;66771;52.434;17.056;2023-02-20T17:18:01;99768.36;;;8.71;71.08
77603;BME280;66771;52.434;17.056;2023-02-20T17:27:38;99780.89;;;8.74;71.11
77603;BME280;66771;52.434;17.056;2023-02-20T17:30:24;99769.40;;;8.71;71.22
77603;BME280;66771;52.434;17.056;2023-02-20T17:33:06;99778.96;;;8.73;71.30
77603;BME280;66771;52.434;17.056;2023-02-20T17:38:33;99777.52;;;8.75;71.48
77603;BME280;66771;52.434;17.056;2023-02-20T17:41:31;99772.70;;;8.75;71.27
77603;BME280;66771;52.434;17.056;2023-02-20T17:44:31;99767.99;;;8.78;71.36
77603;BME280;66771;52.434;17.056;2023-02-20T17:50:41;99773.92;;;8.80;71.30
77603;BME280;66771;52.434;17.056;2023-02-20T17:53:35;99775.20;;;8.79;71.34
77603;BME280;66771;52.434;17.056;2023-02-20T17:59:52;99777.00;;;8.81;71.69
77603;BME280;66771;52.434;17.056;2023-02-20T18:02:32;99776.08;;;8.79;71.81
77603;BME280;66771;52.434;17.056;2023-02-20T18:05:08;99776.70;;;8.76;71.94
77603;BME280;66771;52.434;17.056;2023-02-20T18:08:16;99770.73;;;8.79;71.98
77603;BME280;66771;52.434;17.056;2023-02-20T18:13:52;99771.88;;;8.80;72.06
77603;BME280;66771;52.434;17.056;2023-02-20T18:17:10;99768.67;;;8.78;72.19
77603;BME280;66771;52.434;17.056;2023-02-20T18:23:20;99766.78;;;8.79;72.21
77603;BME280;66771;52.434;17.056;2023-02-20T18:25:56;99762.16;;;8.78;72.34
77603;BME280;66771;52.434;17.056;2023-02-20T18:28:56;99765.38;;;8.78;72.44
77603;BME280;66771;52.434;17.056;2023-02-20T18:31:59;99766.21;;;8.82;72.28
77603;BME280;66771;52.434;17.056;2023-02-20T18:37:37;99762.08;;;8.84;72.18
77603;BME280;66771;52.434;17.056;2023-02-20T18:40:35;99758.60;;;8.82;72.38
77603;BME280;66771;52.434;17.056;2023-02-20T18:43:46;99762.34;;;8.85;72.38
77603;BME280;66771;52.434;17.056;2023-02-20T18:46:43;99758.75;;;8.85;72.20
77603;BME280;66771;52.434;17.056;2023-02-20T18:49:53;99753.91;;;8.85;72.27
77603;BME280;66771;52.434;17.056;2023-02-20T18:52:34;99753.87;;;8.87;72.28
77603;BME280;66771;52.434;17.056;2023-02-20T18:55:09;99747.00;;;8.88;72.21
77603;BME280;66771;52.434;17.056;2023-02-20T18:57:59;99743.44;;;8.86;72.28
77603;BME280;66771;52.434;17.056;2023-02-20T19:00:39;99742.15;;;8.86;72.41
77603;BME280;66771;52.434;17.056;2023-02-20T19:03:09;99733.85;;;8.87;72.37
77603;BME280;66771;52.434;17.056;2023-02-20T19:06:31;99730.72;;;8.88;72.42
77603;BME280;66771;52.434;17.056;2023-02-20T19:09:37;99714.34;;;8.88;72.57
77603;BME280;66771;52.434;17.056;2023-02-20T19:12:27;99713.67;;;8.83;72.73
77603;BME280;66771;52.434;17.056;2023-02-20T19:15:09;99717.78;;;8.86;72.82
77603;BME280;66771;52.434;17.056;2023-02-20T19:18:14;99717.56;;;8.86;72.85
77603;BME280;66771;52.434;17.056;2023-02-20T19:21:25;99717.15;;;8.85;72.99
77603;BME280;66771;52.434;17.056;2023-02-20T19:24:29;99714.73;;;8.86;73.01
77603;BME280;66771;52.434;17.056;2023-02-20T19:30:31;99686.31;;;8.89;72.95
77603;BME280;66771;52.434;17.056;2023-02-20T19:33:27;99696.28;;;8.85;73.20
77603;BME280;66771;52.434;17.056;2023-02-20T19:36:15;99706.00;;;8.83;73.39
77603;BME280;66771;52.434;17.056;2023-02-20T19:45:31;99703.33;;;8.81;73.68
77603;BME280;66771;52.434;17.056;2023-02-20T19:48:27;99702.77;;;8.81;73.68
77603;BME280;66771;52.434;17.056;2023-02-20T19:51:10;99714.11;;;8.83;73.75
77603;BME280;66771;52.434;17.056;2023-02-20T19:54:03;99728.56;;;8.83;73.80
77603;BME280;66771;52.434;17.056;2023-02-20T20:00:00;99721.54;;;8.84;73.94
77603;BME280;66771;52.434;17.056;2023-02-20T20:05:59;99721.97;;;8.81;74.20
77603;BME280;66771;52.434;17.056;2023-02-20T20:08:51;99723.09;;;8.80;74.12
77603;BME280;66771;52.434;17.056;2023-02-20T20:11:53;99729.36;;;8.80;74.18
77603;BME280;66771;52.434;17.056;2023-02-20T20:14:44;99732.65;;;8.78;74.26
77603;BME280;66771;52.434;17.056;2023-02-20T20:21:07;99731.25;;;8.73;74.45
77603;BME280;66771;52.434;17.056;2023-02-20T20:24:10;99728.77;;;8.66;74.90
77603;BME280;66771;52.434;17.056;2023-02-20T20:27:25;99738.23;;;8.60;75.26
77603;BME280;66771;52.434;17.056;2023-02-20T20:30:33;99750.27;;;8.58;75.36
77603;BME280;66771;52.434;17.056;2023-02-20T20:33:14;99753.70;;;8.55;75.54
77603;BME280;66771;52.434;17.056;2023-02-20T20:39:15;99754.13;;;8.59;75.51
77603;BME280;66771;52.434;17.056;2023-02-20T20:43:04;99765.27;;;8.60;75.38
77603;BME280;66771;52.434;17.056;2023-02-20T20:46:14;99772.21;;;8.59;75.41
77603;BME280;66771;52.434;17.056;2023-02-20T20:52:24;99777.60;;;8.59;75.77
77603;BME280;66771;52.434;17.056;2023-02-20T20:58:53;99765.67;;;8.45;78.00
77603;BME280;66771;52.434;17.056;2023-02-20T21:02:03;99768.13;;;8.23;79.21
77603;BME280;66771;52.434;17.056;2023-02-20T21:04:33;99769.98;;;8.12;79.85
77603;BME280;66771;52.434;17.056;2023-02-20T21:08:02;99760.50;;;8.05;80.50
77603;BME280;66771;52.434;17.056;2023-02-20T21:11:14;99757.31;;;7.98;80.21
77603;BME280;66771;52.434;17.056;2023-02-20T21:17:57;99752.42;;;8.00;80.07
77603;BME280;66771;52.434;17.056;2023-02-20T21:20:37;99749.63;;;8.04;79.90
77603;BME280;66771;52.434;17.056;2023-02-20T21:26:52;99744.38;;;8.13;79.37
77603;BME280;66771;52.434;17.056;2023-02-20T21:30:02;99746.89;;;8.18;79.03
77603;BME280;66771;52.434;17.056;2023-02-20T21:33:32;99734.17;;;8.27;78.52
77603;BME280;66771;52.434;17.056;2023-02-20T21:36:33;99741.30;;;8.38;77.80
77603;BME280;66771;52.434;17.056;2023-02-20T21:39:31;99733.41;;;8.45;77.53
77603;BME280;66771;52.434;17.056;2023-02-20T21:42:39;99732.59;;;8.51;77.23
77603;BME280;66771;52.434;17.056;2023-02-20T21:52:07;99728.96;;;8.63;76.34
77603;BME280;66771;52.434;17.056;2023-02-20T21:58:32;99729.42;;;8.67;76.07
77603;BME280;66771;52.434;17.056;2023-02-20T22:01:34;99732.77;;;8.67;75.90
77603;BME280;66771;52.434;17.056;2023-02-20T22:07:52;99734.70;;;8.70;75.94
77603;BME280;66771;52.434;17.056;2023-02-20T22:11:16;99736.09;;;8.73;75.79
77603;BME280;66771;52.434;17.056;2023-02-20T22:14:11;99733.47;;;8.74;75.84
77603;BME280;66771;52.434;17.056;2023-02-20T22:17:29;99736.58;;;8.74;75.85
77603;BME280;66771;52.434;17.056;2023-02-20T22:20:47;99727.08;;;8.72;75.91
77603;BME280;66771;52.434;17.056;2023-02-20T22:23:42;99729.45;;;8.71;76.02
77603;BME280;66771;52.434;17.056;2023-02-20T22:26:28;99725.45;;;8.69;76.04
77603;BME280;66771;52.434;17.056;2023-02-20T22:29:22;99724.77;;;8.71;75.98
77603;BME280;66771;52.434;17.056;2023-02-20T22:32:11;99725.46;;;8.72;76.20
77603;BME280;66771;52.434;17.056;2023-02-20T22:34:57;99722.77;;;8.71;75.98
77603;BME280;66771;52.434;17.056;2023-02-20T22:38:03;99717.58;;;8.73;75.97
77603;BME280;66771;52.434;17.056;2023-02-20T22:41:21;99718.95;;;8.72;76.04
77603;BME280;66771;52.434;17.056;2023-02-20T22:44:40;99717.34;;;8.72;76.31
77603;BME280;66771;52.434;17.056;2023-02-20T22:48:09;99708.63;;;8.69;76.75
77603;BME280;66771;52.434;17.056;2023-02-20T22:51:23;99708.98;;;8.62;77.48
77603;BME280;66771;52.434;17.056;2023-02-20T22:54:13;99716.27;;;8.55;77.63
77603;BME280;66771;52.434;17.056;2023-02-20T22:57:02;99711.09;;;8.52;77.83
77603;BME280;66771;52.434;17.056;2023-02-20T22:59:54;99708.45;;;8.48;78.38
77603;BME280;66771;52.434;17.056;2023-02-20T23:02:43;99708.64;;;8.48;78.26
77603;BME280;66771;52.434;17.056;2023-02-20T23:06:40;99707.01;;;8.48;78.10
77603;BME280;66771;52.434;17.056;2023-02-20T23:10:18;99704.96;;;8.46;78.00
77603;BME280;66771;52.434;17.056;2023-02-20T23:13:46;99702.67;;;8.52;77.65
77603;BME280;66771;52.434;17.056;2023-02-20T23:17:06;99700.29;;;8.57;77.42
77603;BME280;66771;52.434;17.056;2023-02-20T23:20:51;99697.85;;;8.63;77.07
77603;BME280;66771;52.434;17.056;2023-02-20T23:24:05;99694.39;;;8.70;76.75
77603;BME280;66771;52.434;17.056;2023-02-20T23:27:32;99694.08;;;8.74;76.82
77603;BME280;66771;52.434;17.056;2023-02-20T23:30:47;99699.08;;;8.74;76.94
77603;BME280;66771;52.434;17.056;2023-02-20T23:33:41;99696.76;;;8.74;77.28
77603;BME280;66771;52.434;17.056;2023-02-20T23:36:57;99693.48;;;8.70;77.24
77603;BME280;66771;52.434;17.056;2023-02-20T23:40:04;99692.88;;;8.68;77.13
77603;BME280;66771;52.434;17.056;2023-02-20T23:43:25;99691.50;;;8.67;77.44
77603;BME280;66771;52.434;17.056;2023-02-20T23:47:05;99691.15;;;8.70;77.19
77603;BME280;66771;52.434;17.056;2023-02-20T23:50:32;99689.93;;;8.72;77.36
77603;BME280;66771;52.434;17.056;2023-02-20T23:53:58;99689.45;;;8.64;78.67
